Time;durP1;ratioP1;P1;durP2;ratioP2;P2;SDS_P1;SDS_P2;PMS_P1;PMS_P2;Temp;Humidity;BMP_temperature;BMP_pressure;BME280_temperature;BME280_humidity;BME280_pressure;Samples;Min_cycle;Max_cycle;Signal;HPM_P1;HPM_P2
2022/01/08 00:00:58;;;;;;;6.53;1.60;;;1.50;99.90;;;;;;4969096;28;20050;-63
2022/01/08 00:03:24;;;;;;;6.57;2.00;;;1.50;99.90;;;;;;4999038;28;20117;-63
2022/01/08 00:05:50;;;;;;;4.78;1.10;;;1.50;99.90;;;;;;4988043;28;20188;-62
2022/01/08 00:08:16;;;;;;;6.50;1.35;;;1.40;99.90;;;;;;5004532;28;20484;-63
2022/01/08 00:10:42;;;;;;;3.67;1.30;;;1.40;99.90;;;;;;4991290;28;20054;-63
2022/01/08 00:13:08;;;;;;;2.83;1.17;;;1.40;99.90;;;;;;4985538;28;20046;-63
2022/01/08 00:15:35;;;;;;;2.38;0.93;;;1.30;99.90;;;;;;4987158;28;20136;-63
2022/01/08 00:18:01;;;;;;;4.10;1.10;;;1.30;99.90;;;;;;4985805;28;20129;-63
2022/01/08 00:20:30;;;;;;;2.95;1.10;;;1.20;99.90;;;;;;4987195;28;20047;-63
2022/01/08 00:22:57;;;;;;;8.00;1.38;;;1.20;99.90;;;;;;5000544;28;20437;-63
2022/01/08 00:25:22;;;;;;;5.13;1.20;;;1.10;99.90;;;;;;4989427;28;20137;-63
2022/01/08 00:27:48;;;;;;;2.72;1.35;;;1.10;99.90;;;;;;4957338;28;20184;-63
2022/01/08 00:30:14;;;;;;;5.43;1.55;;;1.10;99.90;;;;;;4986847;28;20504;-63
2022/01/08 00:32:40;;;;;;;4.38;1.63;;;1.00;99.90;;;;;;4972939;28;20473;-63
2022/01/08 00:35:10;;;;;;;7.10;1.30;;;1.00;99.90;;;;;;4988231;28;20555;-63
2022/01/08 00:37:39;;;;;;;6.63;1.90;;;0.90;99.90;;;;;;4990488;28;20121;-63
2022/01/08 00:40:07;;;;;;;8.57;1.92;;;0.90;99.90;;;;;;4971857;28;20073;-63
2022/01/08 00:42:33;;;;;;;3.45;1.85;;;0.90;99.90;;;;;;4987491;28;20045;-63
2022/01/08 00:44:59;;;;;;;4.10;1.50;;;1.00;99.90;;;;;;4990601;28;20046;-63
2022/01/08 00:47:25;;;;;;;5.05;2.50;;;1.10;99.90;;;;;;4988914;28;20431;-63
2022/01/08 00:49:51;;;;;;;3.97;2.08;;;1.10;99.90;;;;;;4973269;28;20053;-63
2022/01/08 00:52:16;;;;;;;12.70;2.20;;;1.20;99.90;;;;;;4972215;28;20499;-63
2022/01/08 00:54:42;;;;;;;7.10;1.95;;;1.20;99.90;;;;;;4989138;28;20051;-63
2022/01/08 00:57:08;;;;;;;2.25;1.45;;;1.20;99.90;;;;;;4990533;28;20602;-63
2022/01/08 00:59:34;;;;;;;4.97;1.75;;;1.20;99.90;;;;;;4970895;28;20084;-63
2022/01/08 01:02:00;;;;;;;3.70;1.50;;;1.30;99.90;;;;;;4987989;28;20046;-64
2022/01/08 01:04:27;;;;;;;6.70;1.90;;;1.30;99.90;;;;;;4988560;28;20039;-64
2022/01/08 01:06:52;;;;;;;1.88;0.80;;;1.30;99.90;;;;;;4990260;28;20048;-63
2022/01/08 01:09:18;;;;;;;2.47;1.13;;;1.40;99.90;;;;;;4987206;28;20811;-63
2022/01/08 01:11:44;;;;;;;4.90;1.08;;;1.50;99.90;;;;;;5000743;28;20034;-63
2022/01/08 01:14:10;;;;;;;6.05;1.10;;;1.50;99.90;;;;;;4989793;28;20046;-63
2022/01/08 01:16:36;;;;;;;7.07;1.05;;;1.50;99.90;;;;;;4938697;28;20568;-63
2022/01/08 01:19:03;;;;;;;10.98;1.35;;;1.50;99.90;;;;;;4965227;28;20535;-63
2022/01/08 01:21:29;;;;;;;8.43;1.40;;;1.50;99.90;;;;;;4987549;28;20609;-63
2022/01/08 01:23:56;;;;;;;8.20;1.70;;;1.40;99.90;;;;;;4990276;28;20050;-63
2022/01/08 01:26:25;;;;;;;5.28;1.48;;;1.40;99.90;;;;;;4989825;28;20515;-63
2022/01/08 01:47:18;;;;;;;8.15;1.70;;;1.30;99.90;;;;;;4984994;28;20161;-63
2022/01/08 01:49:45;;;;;;;4.60;1.30;;;1.20;99.90;;;;;;4988347;28;20452;-63
2022/01/08 01:52:16;;;;;;;5.20;1.42;;;1.20;99.90;;;;;;4987929;28;20113;-63
2022/01/08 01:54:43;;;;;;;9.13;1.60;;;1.20;99.90;;;;;;4989426;28;20038;-63
2022/01/08 01:57:12;;;;;;;4.35;1.73;;;1.20;99.90;;;;;;4988634;28;20085;-63
2022/01/08 01:59:39;;;;;;;5.68;1.52;;;1.20;99.90;;;;;;4980409;28;20100;-63
2022/01/08 02:02:06;;;;;;;9.10;1.92;;;1.20;99.90;;;;;;4982880;28;20089;-63
2022/01/08 02:04:33;;;;;;;5.07;1.77;;;1.30;99.90;;;;;;4987757;28;20046;-63
2022/01/08 02:06:59;;;;;;;10.75;1.80;;;1.30;99.90;;;;;;4971867;28;20057;-63
2022/01/08 02:09:25;;;;;;;10.10;2.25;;;1.30;99.90;;;;;;4982520;28;20050;-63
2022/01/08 02:12:02;;;;;;;12.43;1.85;;;1.30;99.90;;;;;;4989282;28;20708;-63
2022/01/08 02:14:31;;;;;;;8.73;2.55;;;1.30;99.90;;;;;;4989074;28;20042;-63
2022/01/08 02:16:57;;;;;;;12.27;1.90;;;1.40;99.90;;;;;;4988429;28;20149;-63
2022/01/08 02:19:24;;;;;;;3.08;1.20;;;1.40;99.90;;;;;;4988711;28;20105;-63
2022/01/08 02:21:58;;;;;;;13.48;1.95;;;1.50;99.90;;;;;;4987634;28;20082;-63
2022/01/08 02:24:25;;;;;;;5.82;1.73;;;1.50;99.90;;;;;;4970880;28;20496;-63
2022/01/08 02:26:52;;;;;;;3.83;1.38;;;1.50;99.90;;;;;;4987647;28;20102;-63
2022/01/08 02:29:20;;;;;;;10.48;1.80;;;1.60;99.90;;;;;;4988717;28;20058;-63
2022/01/08 02:32:04;;;;;;;6.78;1.50;;;1.60;99.90;;;;;;4998919;28;20070;-63
2022/01/08 02:34:31;;;;;;;8.88;2.05;;;1.60;99.90;;;;;;4986965;28;20062;-63
2022/01/08 02:36:58;;;;;;;5.75;1.73;;;1.70;99.90;;;;;;4988465;28;20057;-63
2022/01/08 02:39:25;;;;;;;2.05;1.35;;;1.70;99.90;;;;;;4986825;28;20130;-63
2022/01/08 02:41:56;;;;;;;8.77;1.48;;;1.70;99.90;;;;;;4989415;28;20129;-63
2022/01/08 02:44:22;;;;;;;4.22;1.42;;;1.70;99.90;;;;;;4986541;28;20049;-63
2022/01/08 02:46:49;;;;;;;7.32;1.75;;;1.80;99.90;;;;;;4988095;28;20038;-63
2022/01/08 02:49:14;;;;;;;7.15;1.58;;;1.80;99.90;;;;;;4970361;28;20050;-63
2022/01/08 02:51:40;;;;;;;8.73;1.67;;;1.80;99.90;;;;;;4977332;28;20304;-63
2022/01/08 02:54:11;;;;;;;8.30;1.63;;;1.90;99.90;;;;;;4987967;28;20457;-62
2022/01/08 02:56:38;;;;;;;4.32;1.20;;;1.90;99.90;;;;;;4986290;28;20499;-63
2022/01/08 02:59:05;;;;;;;4.63;1.60;;;1.90;99.90;;;;;;4987645;28;20063;-63
2022/01/08 03:01:31;;;;;;;11.15;1.80;;;1.90;99.90;;;;;;4986596;28;20046;-63
2022/01/08 03:03:57;;;;;;;6.10;1.42;;;1.80;99.90;;;;;;4970127;28;20474;-62
2022/01/08 03:06:23;;;;;;;7.57;1.88;;;1.80;99.90;;;;;;4986974;28;20496;-63
2022/01/08 03:08:49;;;;;;;14.73;1.58;;;1.70;99.90;;;;;;4987021;28;20034;-63
2022/01/08 03:11:15;;;;;;;9.57;2.20;;;1.60;99.90;;;;;;4986395;28;20039;-63
2022/01/08 03:13:41;;;;;;;7.25;1.83;;;1.50;99.90;;;;;;4979288;28;20129;-63
2022/01/08 03:16:06;;;;;;;5.93;1.48;;;1.50;99.90;;;;;;4988058;28;20379;-63
2022/01/08 03:18:34;;;;;;;9.85;1.70;;;1.50;99.90;;;;;;4986145;28;20449;-63
2022/01/08 03:21:13;;;;;;;6.25;2.10;;;1.40;99.90;;;;;;4988326;28;20125;-63
2022/01/08 03:23:44;;;;;;;5.20;1.20;;;1.40;99.90;;;;;;4985860;28;20134;-63
2022/01/08 03:26:10;;;;;;;5.95;1.80;;;1.40;99.90;;;;;;4985730;28;20161;-63
2022/01/08 03:28:36;;;;;;;10.05;1.77;;;1.40;99.90;;;;;;4985677;28;20042;-63
2022/01/08 03:31:03;;;;;;;6.35;1.60;;;1.30;99.90;;;;;;4984817;28;20534;-63
2022/01/08 03:33:29;;;;;;;5.88;1.75;;;1.30;99.90;;;;;;4968575;28;20496;-63
2022/01/08 03:35:54;;;;;;;3.65;1.75;;;1.30;99.90;;;;;;4968008;28;20046;-63
2022/01/08 03:38:20;;;;;;;5.57;1.90;;;1.30;99.90;;;;;;4988915;28;20034;-63
2022/01/08 03:40:46;;;;;;;9.90;1.92;;;1.30;99.90;;;;;;4973505;28;20463;-63
2022/01/08 03:43:12;;;;;;;6.88;2.28;;;1.40;99.90;;;;;;4988804;28;20038;-63
2022/01/08 03:45:38;;;;;;;6.32;1.98;;;1.30;99.90;;;;;;4987980;28;20054;-63
2022/01/08 03:50:48;;;;;;;15.82;2.13;;;1.30;99.90;;;;;;4989187;28;20081;-63
2022/01/08 03:53:14;;;;;;;6.65;1.70;;;1.30;99.90;;;;;;4982094;28;20082;-63
2022/01/08 03:55:40;;;;;;;6.53;2.35;;;1.30;99.90;;;;;;4968875;28;20035;-63
2022/01/08 03:58:06;;;;;;;10.88;2.55;;;1.20;99.90;;;;;;4984457;28;20050;-63
2022/01/08 04:00:31;;;;;;;9.27;2.83;;;1.20;99.90;;;;;;4986022;28;20078;-63
2022/01/08 04:02:57;;;;;;;3.85;1.95;;;1.20;99.90;;;;;;4971140;28;20070;-63
2022/01/08 04:05:23;;;;;;;9.80;2.28;;;1.20;99.90;;;;;;4958596;28;20544;-63
2022/01/08 04:07:49;;;;;;;7.65;2.60;;;1.20;99.90;;;;;;4984346;28;20031;-63
2022/01/08 04:10:14;;;;;;;8.30;2.25;;;1.10;99.90;;;;;;4941716;28;20043;-63
2022/01/08 04:12:44;;;;;;;6.95;2.58;;;1.20;99.90;;;;;;4971011;28;20030;-63
2022/01/08 04:18:06;;;;;;;8.57;2.13;;;1.20;99.90;;;;;;4955292;28;20054;-63
2022/01/08 04:20:40;;;;;;;9.68;2.45;;;1.20;99.90;;;;;;4986965;28;20046;-63
2022/01/08 04:23:05;;;;;;;10.13;2.65;;;1.20;99.90;;;;;;4980928;28;20827;-63
2022/01/08 04:25:31;;;;;;;9.55;2.55;;;1.30;99.90;;;;;;4983710;28;20042;-63
2022/01/08 04:27:58;;;;;;;9.15;2.42;;;1.30;99.90;;;;;;4980098;28;20054;-63
2022/01/08 04:30:24;;;;;;;6.75;2.03;;;1.30;99.90;;;;;;4979155;28;20485;-63
2022/01/08 04:32:49;;;;;;;2.83;1.48;;;1.30;99.90;;;;;;4985546;28;20046;-63
2022/01/08 04:35:15;;;;;;;13.10;2.30;;;1.40;99.90;;;;;;4985732;28;20108;-63
2022/01/08 04:37:41;;;;;;;8.95;2.15;;;1.40;99.90;;;;;;4955659;28;20130;-63
2022/01/08 04:40:07;;;;;;;11.45;2.00;;;1.40;99.90;;;;;;4960851;28;20126;-63
2022/01/08 04:42:33;;;;;;;4.45;1.83;;;1.40;99.90;;;;;;4961959;28;20046;-63
2022/01/08 04:44:59;;;;;;;13.23;2.25;;;1.40;99.90;;;;;;4968209;28;20083;-63
2022/01/08 04:47:25;;;;;;;6.65;2.15;;;1.40;99.90;;;;;;4986910;28;20081;-63
2022/01/08 04:49:51;;;;;;;7.22;1.85;;;1.40;99.90;;;;;;4984604;28;20034;-63
2022/01/08 04:52:17;;;;;;;11.43;1.92;;;1.50;99.90;;;;;;4977949;28;20093;-63
2022/01/08 04:54:43;;;;;;;9.23;2.20;;;1.40;99.90;;;;;;4963260;28;20074;-63
2022/01/08 04:57:09;;;;;;;9.30;1.80;;;1.40;99.90;;;;;;4968087;28;20081;-63
2022/01/08 04:59:34;;;;;;;6.80;1.30;;;1.40;99.90;;;;;;4968503;28;20425;-63
2022/01/08 05:02:00;;;;;;;4.80;1.70;;;1.40;99.90;;;;;;4984888;28;20026;-63
2022/01/08 05:04:27;;;;;;;6.38;1.52;;;1.40;99.90;;;;;;4959367;28;20046;-63
2022/01/08 05:06:52;;;;;;;9.30;1.80;;;1.40;99.90;;;;;;4948873;28;20046;-63
2022/01/08 05:09:18;;;;;;;17.95;1.88;;;1.30;99.90;;;;;;4990501;28;20067;-63
2022/01/08 05:11:46;;;;;;;4.85;1.27;;;1.30;99.90;;;;;;4989212;28;20042;-63
2022/01/08 05:14:12;;;;;;;4.60;1.17;;;1.30;99.90;;;;;;4955015;28;20034;-63
2022/01/08 05:16:39;;;;;;;13.57;1.80;;;1.30;99.90;;;;;;4989684;28;20113;-63
2022/01/08 05:19:05;;;;;;;3.92;1.30;;;1.30;99.90;;;;;;4988590;28;20050;-63
2022/01/08 05:21:33;;;;;;;4.40;1.83;;;1.20;99.90;;;;;;4999675;28;20416;-63
2022/01/08 05:23:59;;;;;;;10.15;1.80;;;1.20;99.90;;;;;;4995011;28;20053;-63
2022/01/08 05:26:26;;;;;;;13.57;1.60;;;1.20;99.90;;;;;;4989893;28;20038;-63
2022/01/08 05:28:52;;;;;;;8.63;1.35;;;1.20;99.90;;;;;;4988822;28;20042;-63
2022/01/08 05:31:21;;;;;;;12.15;1.23;;;1.30;99.90;;;;;;4991193;28;20048;-63
2022/01/08 05:33:47;;;;;;;6.82;1.13;;;1.30;99.90;;;;;;4971780;28;20042;-63
2022/01/08 05:36:13;;;;;;;6.43;1.50;;;1.30;99.90;;;;;;4988145;28;20048;-63
2022/01/08 05:38:39;;;;;;;4.35;1.08;;;1.30;99.90;;;;;;4989368;28;20046;-63
2022/01/08 05:41:05;;;;;;;4.88;1.00;;;1.30;99.90;;;;;;4993441;28;20070;-63
2022/01/08 05:43:30;;;;;;;5.80;1.05;;;1.20;99.90;;;;;;4975818;28;20054;-63
2022/01/08 05:45:56;;;;;;;7.03;0.82;;;1.20;99.90;;;;;;4959425;28;20053;-63
2022/01/08 05:48:24;;;;;;;5.78;1.05;;;1.20;99.90;;;;;;4990181;28;20117;-63
2022/01/08 05:50:50;;;;;;;6.53;1.10;;;1.20;99.90;;;;;;4998782;28;20629;-63
2022/01/08 05:53:19;;;;;;;6.20;1.25;;;1.20;99.90;;;;;;4957170;28;20082;-63
2022/01/08 05:55:46;;;;;;;6.20;1.30;;;1.20;99.90;;;;;;4989062;28;20039;-63
2022/01/08 05:58:12;;;;;;;5.75;1.23;;;1.20;99.90;;;;;;4970225;28;20105;-63
2022/01/08 06:00:38;;;;;;;12.77;1.27;;;1.20;99.90;;;;;;4970819;28;20054;-63
2022/01/08 06:03:04;;;;;;;5.82;1.20;;;1.30;99.90;;;;;;4987670;28;20038;-63
2022/01/08 06:05:30;;;;;;;3.55;0.90;;;1.30;99.90;;;;;;4968812;28;20138;-63
2022/01/08 06:07:56;;;;;;;8.30;2.47;;;1.30;99.90;;;;;;4951893;28;20070;-63
2022/01/08 06:10:21;;;;;;;4.22;0.98;;;1.30;99.90;;;;;;4986120;28;20096;-63
2022/01/08 06:12:48;;;;;;;9.68;1.48;;;1.30;99.90;;;;;;4988413;28;20038;-63
2022/01/08 06:15:14;;;;;;;5.72;1.50;;;1.30;99.90;;;;;;4970087;28;20596;-63
2022/01/08 06:17:40;;;;;;;5.13;1.00;;;1.30;99.90;;;;;;4987089;28;20121;-63
2022/01/08 06:20:06;;;;;;;6.40;0.82;;;1.30;99.90;;;;;;4986075;28;20133;-63
2022/01/08 06:22:32;;;;;;;7.13;1.48;;;1.20;99.90;;;;;;4988242;28;20045;-63
2022/01/08 06:24:58;;;;;;;3.72;0.80;;;1.30;99.90;;;;;;4987846;28;20053;-63
2022/01/08 06:27:24;;;;;;;5.30;0.88;;;1.30;99.90;;;;;;4970815;28;20038;-63
2022/01/08 06:29:51;;;;;;;7.50;1.40;;;1.30;99.90;;;;;;4941017;28;20145;-63
2022/01/08 06:32:17;;;;;;;6.95;1.08;;;1.30;99.90;;;;;;4988505;28;20085;-63
2022/01/08 06:34:43;;;;;;;5.15;1.23;;;1.30;99.90;;;;;;4984222;28;20047;-63
2022/01/08 06:37:10;;;;;;;7.10;0.95;;;1.30;99.90;;;;;;4987453;28;20047;-63
2022/01/08 06:39:36;;;;;;;9.77;1.20;;;1.20;99.90;;;;;;4988115;28;20093;-63
2022/01/08 06:42:02;;;;;;;7.03;1.45;;;1.20;99.90;;;;;;4986804;28;20042;-63
2022/01/08 06:44:28;;;;;;;7.97;2.30;;;1.20;99.90;;;;;;4987894;28;20034;-63
2022/01/08 06:46:54;;;;;;;10.82;1.27;;;1.20;99.90;;;;;;4987903;28;20377;-63
2022/01/08 06:49:20;;;;;;;5.65;1.20;;;1.20;99.90;;;;;;4969760;28;20048;-63
2022/01/08 06:51:46;;;;;;;10.40;1.30;;;1.10;99.90;;;;;;4987362;28;20038;-63
2022/01/08 06:54:11;;;;;;;5.05;1.10;;;1.10;99.90;;;;;;4969322;28;20134;-63
2022/01/08 06:56:37;;;;;;;6.55;0.80;;;1.10;99.90;;;;;;4988018;28;20049;-63
2022/01/08 06:59:03;;;;;;;8.48;1.63;;;1.00;99.90;;;;;;4986773;28;20493;-63
2022/01/08 07:01:29;;;;;;;4.45;1.50;;;1.10;99.90;;;;;;4989204;28;20258;-63
2022/01/08 07:03:55;;;;;;;6.00;1.50;;;1.00;99.90;;;;;;4979947;28;20080;-63
2022/01/08 07:06:22;;;;;;;11.40;2.03;;;1.00;99.90;;;;;;4990258;28;20040;-63
2022/01/08 07:08:48;;;;;;;8.20;2.22;;;0.90;99.90;;;;;;4969692;28;20080;-63
2022/01/08 07:11:14;;;;;;;12.13;3.33;;;0.90;99.90;;;;;;4965891;28;20050;-63
2022/01/08 07:13:40;;;;;;;14.10;3.97;;;0.90;99.90;;;;;;4987275;28;20054;-63
2022/01/08 07:16:07;;;;;;;4.53;2.10;;;0.90;99.90;;;;;;4987697;28;20052;-63
2022/01/08 07:18:33;;;;;;;10.00;3.28;;;0.90;99.90;;;;;;4988021;28;20493;-63
2022/01/08 07:20:59;;;;;;;8.38;2.78;;;0.90;99.90;;;;;;4985707;28;20097;-63
2022/01/08 07:23:25;;;;;;;10.63;3.08;;;1.00;99.90;;;;;;4964756;28;20035;-63
2022/01/08 07:25:50;;;;;;;12.75;3.47;;;1.00;99.90;;;;;;4986938;28;20054;-63
2022/01/08 07:28:16;;;;;;;8.65;3.53;;;0.90;99.90;;;;;;4986468;28;20034;-63
2022/01/08 07:30:42;;;;;;;21.80;4.43;;;0.90;99.90;;;;;;4969472;28;20141;-63
2022/01/08 07:33:08;;;;;;;14.52;3.55;;;0.90;99.90;;;;;;4977326;28;20129;-63
2022/01/08 07:35:34;;;;;;;12.82;3.40;;;0.80;99.90;;;;;;4987169;28;20086;-63
2022/01/08 07:38:02;;;;;;;11.45;3.58;;;0.80;99.90;;;;;;4968799;28;20066;-63
2022/01/08 07:40:28;;;;;;;8.52;3.08;;;0.80;99.90;;;;;;4987315;28;20046;-63
2022/01/08 07:42:55;;;;;;;13.05;3.60;;;0.80;99.90;;;;;;4972427;28;20053;-63
2022/01/08 07:45:21;;;;;;;16.45;3.53;;;0.80;99.90;;;;;;4986482;28;20093;-63
2022/01/08 07:47:48;;;;;;;25.15;3.75;;;0.80;99.90;;;;;;4970173;28;20077;-63
2022/01/08 07:50:15;;;;;;;7.43;2.72;;;0.80;99.90;;;;;;4962981;28;20073;-63
2022/01/08 07:52:42;;;;;;;7.70;3.38;;;0.70;99.90;;;;;;4981603;28;20508;-63
2022/01/08 07:55:09;;;;;;;11.40;3.25;;;0.80;99.90;;;;;;4990166;28;20053;-63
2022/01/08 07:57:35;;;;;;;11.30;3.80;;;0.80;99.90;;;;;;4980003;28;20055;-63
2022/01/08 08:00:02;;;;;;;14.40;4.00;;;0.80;99.90;;;;;;4960018;28;20128;-63
2022/01/08 08:02:28;;;;;;;10.25;3.50;;;0.80;99.90;;;;;;4990937;28;20042;-63
2022/01/08 08:04:54;;;;;;;21.73;4.13;;;0.80;99.90;;;;;;5002352;28;20049;-63
2022/01/08 08:07:31;;;;;;;13.27;4.13;;;0.80;99.90;;;;;;4979929;28;20043;-63
2022/01/08 08:09:57;;;;;;;8.40;3.05;;;0.90;99.90;;;;;;4955271;28;20468;-63
2022/01/08 08:12:23;;;;;;;16.90;4.13;;;0.80;99.90;;;;;;4968019;28;20057;-63
2022/01/08 08:14:49;;;;;;;14.10;3.55;;;0.80;99.90;;;;;;4969495;28;20405;-63
2022/01/08 08:17:15;;;;;;;14.30;4.15;;;0.80;99.90;;;;;;4985930;28;20042;-63
2022/01/08 08:19:41;;;;;;;9.35;3.58;;;0.90;99.90;;;;;;4989730;28;20599;-63
2022/01/08 08:22:06;;;;;;;13.70;3.55;;;0.90;99.90;;;;;;4957641;28;20053;-63
2022/01/08 08:24:32;;;;;;;13.38;3.92;;;0.90;99.90;;;;;;4968161;28;20500;-63
2022/01/08 08:26:58;;;;;;;16.88;3.97;;;0.90;99.90;;;;;;4985189;28;20456;-63
2022/01/08 08:29:23;;;;;;;8.25;2.90;;;0.90;99.90;;;;;;4968442;28;20551;-63
2022/01/08 08:31:49;;;;;;;11.23;3.70;;;0.90;99.90;;;;;;4981538;28;20050;-63
2022/01/08 08:34:15;;;;;;;12.32;4.25;;;1.00;99.90;;;;;;4973795;28;20039;-63
2022/01/08 08:36:41;;;;;;;14.63;3.20;;;1.10;99.90;;;;;;4963471;28;20474;-63
2022/01/08 08:39:06;;;;;;;12.30;2.97;;;1.10;99.90;;;;;;4967447;28;20098;-63
2022/01/08 08:41:32;;;;;;;9.73;3.67;;;1.10;99.90;;;;;;4962523;28;20890;-63
2022/01/08 08:43:58;;;;;;;18.90;3.70;;;1.20;99.90;;;;;;4970539;28;20061;-63
2022/01/08 08:46:24;;;;;;;11.73;3.20;;;1.20;99.90;;;;;;4969260;28;20053;-63
2022/01/08 08:48:50;;;;;;;11.10;3.33;;;1.20;99.90;;;;;;4970944;28;20055;-63
2022/01/08 08:51:16;;;;;;;14.98;3.42;;;1.30;99.90;;;;;;4967541;28;20039;-63
2022/01/08 08:53:41;;;;;;;15.98;3.90;;;1.30;99.90;;;;;;4970382;28;20413;-62
2022/01/08 08:56:07;;;;;;;14.32;3.83;;;1.40;99.90;;;;;;4968546;28;20537;-63
2022/01/08 08:58:33;;;;;;;12.30;3.08;;;1.50;99.90;;;;;;4968862;28;20119;-62
2022/01/08 09:00:59;;;;;;;14.15;3.60;;;1.50;99.90;;;;;;4969581;28;20034;-62
2022/01/08 09:03:24;;;;;;;14.98;3.17;;;1.50;99.90;;;;;;4969461;28;20421;-62
2022/01/08 09:05:50;;;;;;;12.43;3.70;;;1.60;99.90;;;;;;4970554;28;20133;-62
2022/01/08 09:08:16;;;;;;;15.07;3.75;;;1.60;99.90;;;;;;4968870;28;20049;-62
2022/01/08 09:10:42;;;;;;;17.17;3.97;;;1.60;99.90;;;;;;4966519;28;20073;-62
2022/01/08 09:13:09;;;;;;;15.30;3.25;;;1.60;99.90;;;;;;4968021;28;20075;-62
2022/01/08 09:15:40;;;;;;;11.25;3.10;;;1.70;99.90;;;;;;4968987;28;20082;-61
2022/01/08 09:18:07;;;;;;;10.45;2.70;;;1.70;99.90;;;;;;4966528;28;20051;-62
2022/01/08 09:20:33;;;;;;;23.02;4.22;;;1.70;99.90;;;;;;4968794;28;20069;-62
2022/01/08 09:22:59;;;;;;;9.52;3.40;;;1.70;99.90;;;;;;4969402;28;20608;-62
2022/01/08 09:25:25;;;;;;;7.10;2.70;;;1.70;99.90;;;;;;4966231;28;20125;-62
2022/01/08 09:27:50;;;;;;;14.98;3.60;;;1.70;99.90;;;;;;4950156;28;20133;-62
2022/01/08 09:30:16;;;;;;;9.93;2.40;;;1.70;99.90;;;;;;4966266;28;20047;-62
2022/01/08 09:32:45;;;;;;;16.73;3.95;;;1.80;99.90;;;;;;4968096;28;20125;-62
2022/01/08 09:35:13;;;;;;;7.40;2.42;;;1.80;99.90;;;;;;4961439;28;20145;-62
2022/01/08 09:37:39;;;;;;;11.23;2.90;;;1.90;99.90;;;;;;4968549;28;20065;-61
2022/01/08 09:40:09;;;;;;;10.20;2.53;;;2.00;99.90;;;;;;4967525;28;20375;-62
2022/01/08 09:42:35;;;;;;;15.35;3.50;;;2.00;99.90;;;;;;4968498;28;20046;-61
2022/01/08 09:45:00;;;;;;;13.85;2.65;;;2.10;99.90;;;;;;4969773;28;20035;-62
2022/01/08 09:47:27;;;;;;;10.23;3.15;;;2.20;99.90;;;;;;4967139;28;20105;-62
2022/01/08 09:49:52;;;;;;;9.93;3.42;;;2.30;99.90;;;;;;4979705;28;20361;-62
2022/01/08 09:52:18;;;;;;;10.55;3.40;;;2.40;99.90;;;;;;4973874;28;20039;-62
2022/01/08 09:54:44;;;;;;;2.42;1.08;;;2.40;99.90;;;;;;4968417;28;20039;-62
2022/01/08 09:57:10;;;;;;;10.98;3.03;;;2.40;99.90;;;;;;4969236;28;20043;-62
2022/01/08 09:59:36;;;;;;;10.63;2.80;;;2.40;99.90;;;;;;4970604;28;20517;-62
2022/01/08 10:02:02;;;;;;;16.25;3.60;;;2.50;99.90;;;;;;4969103;28;20050;-62
2022/01/08 10:04:36;;;;;;;9.90;3.15;;;2.50;99.90;;;;;;4967778;28;20501;-62
2022/01/08 10:07:20;;;;;;;13.27;3.30;;;2.60;99.90;;;;;;4954279;28;20068;-62
2022/01/08 10:10:20;;;;;;;18.65;3.35;;;2.60;99.90;;;;;;4968540;28;20045;-62
2022/01/08 10:12:46;;;;;;;15.60;3.58;;;2.70;99.90;;;;;;4980193;28;20180;-62
2022/01/08 10:18:00;;;;;;;20.05;2.63;;;2.70;99.90;;;;;;4968880;28;20063;-63
2022/01/08 10:20:34;;;;;;;16.50;3.30;;;2.80;99.90;;;;;;4951202;28;20207;-63
2022/01/08 10:23:21;;;;;;;13.75;3.20;;;2.80;99.90;;;;;;4952312;28;20050;-63
2022/01/08 10:25:57;;;;;;;21.30;3.50;;;2.90;99.90;;;;;;4968977;28;20051;-62
2022/01/08 10:28:56;;;;;;;12.38;3.25;;;2.90;99.90;;;;;;4961289;28;20057;-62
2022/01/08 10:31:30;;;;;;;12.70;2.63;;;2.80;99.90;;;;;;4924759;28;20070;-62
2022/01/08 10:34:16;;;;;;;12.23;3.20;;;2.90;99.90;;;;;;4967884;28;20043;-63
2022/01/08 10:36:46;;;;;;;11.30;2.97;;;2.90;99.90;;;;;;4978230;28;20623;-63
2022/01/08 10:39:22;;;;;;;;;;;2.90;99.90;;;;;;4987175;28;20042;-63
2022/01/08 10:41:51;;;;;;;13.35;2.75;;;3.00;99.90;;;;;;4978184;28;19925;-63
2022/01/08 10:44:24;;;;;;;16.05;3.85;;;3.00;99.90;;;;;;4987787;28;20049;-62
2022/01/08 10:47:01;;;;;;;16.42;3.92;;;3.00;99.90;;;;;;4988444;28;20420;-63
2022/01/08 10:49:45;;;;;;;6.93;2.80;;;3.00;99.90;;;;;;4970506;28;20477;-63
2022/01/08 10:52:17;;;;;;;9.68;2.95;;;3.00;99.90;;;;;;4977511;28;20429;-63
2022/01/08 10:55:02;;;;;;;17.25;3.10;;;3.00;99.90;;;;;;4988323;28;20089;-63
2022/01/08 10:57:37;;;;;;;10.85;3.83;;;3.00;99.90;;;;;;4988112;28;20046;-63
2022/01/08 11:00:11;;;;;;;8.40;3.05;;;3.00;99.90;;;;;;4988592;28;20070;-63
2022/01/08 11:02:38;;;;;;;13.88;3.97;;;3.00;99.90;;;;;;4970588;28;20046;-63
2022/01/08 11:05:06;;;;;;;7.15;3.78;;;3.00;99.90;;;;;;4968606;28;20389;-63
2022/01/08 11:07:34;;;;;;;13.07;3.58;;;3.00;99.90;;;;;;4968780;28;20584;-63
2022/01/08 11:10:12;;;;;;;14.75;4.22;;;3.00;99.90;;;;;;4964293;28;20477;-63
2022/01/08 11:12:44;;;;;;;18.02;3.30;;;3.00;99.90;;;;;;4969110;28;20042;-63
2022/01/08 11:17:55;;;;;;;23.85;4.03;;;3.00;99.90;;;;;;4994541;28;20039;-63
2022/01/08 11:20:28;;;;;;;10.95;3.65;;;3.00;99.90;;;;;;4989558;28;20037;-63
2022/01/08 11:22:56;;;;;;;15.38;3.53;;;3.00;99.90;;;;;;4988477;28;20501;-62
2022/01/08 11:25:25;;;;;;;16.58;3.30;;;3.00;99.90;;;;;;4971772;28;20061;-63
2022/01/08 11:28:12;;;;;;;14.93;3.72;;;3.00;99.90;;;;;;4993965;28;20477;-63
2022/01/08 11:30:42;;;;;;;14.50;3.88;;;3.10;99.90;;;;;;4982490;28;20132;-63
2022/01/08 11:33:21;;;;;;;12.18;3.53;;;3.10;99.90;;;;;;4985255;28;20050;-63
2022/01/08 11:36:01;;;;;;;11.40;3.70;;;3.20;99.90;;;;;;4988970;28;20061;-63
2022/01/08 11:38:28;;;;;;;13.45;3.42;;;3.20;99.90;;;;;;4984524;28;20497;-63
2022/01/08 11:40:56;;;;;;;19.58;5.07;;;3.30;99.90;;;;;;4985727;28;20047;-62
2022/01/08 11:43:24;;;;;;;12.57;4.32;;;3.30;99.90;;;;;;4953134;28;20431;-63
2022/01/08 11:46:05;;;;;;;11.38;4.35;;;3.40;99.90;;;;;;4968866;28;20920;-63
2022/01/08 11:48:38;;;;;;;6.35;2.72;;;3.50;99.90;;;;;;4969660;28;20392;-63
2022/01/08 11:51:06;;;;;;;2.30;1.33;;;3.60;99.90;;;;;;4986805;28;21990;-63
2022/01/08 11:53:34;;;;;;;2.45;2.13;;;3.70;99.80;;;;;;4986072;28;20042;-63
2022/01/08 11:56:02;;;;;;;8.23;2.63;;;3.80;99.70;;;;;;4985348;28;20053;-63
2022/01/08 11:58:30;;;;;;;13.20;4.68;;;3.70;98.80;;;;;;4986218;28;20591;-63
2022/01/08 12:00:59;;;;;;;9.13;2.65;;;3.80;99.20;;;;;;4985027;28;20034;-63
2022/01/08 12:03:31;;;;;;;13.32;4.20;;;3.80;98.90;;;;;;4985922;28;20038;-63
2022/01/08 12:06:16;;;;;;;8.77;2.67;;;3.70;98.40;;;;;;4984821;28;20068;-63
2022/01/08 12:09:24;;;;;;;6.00;2.28;;;3.60;98.90;;;;;;4981790;28;20038;-63
2022/01/08 12:11:52;;;;;;;8.30;3.40;;;3.50;98.60;;;;;;4984992;28;20051;-63
2022/01/08 12:14:20;;;;;;;7.20;3.15;;;3.40;99.10;;;;;;4982307;28;20045;-63
2022/01/08 12:16:50;;;;;;;9.93;4.50;;;3.30;99.20;;;;;;4987938;28;20050;-63
2022/01/08 12:19:43;;;;;;;12.35;6.22;;;3.30;99.90;;;;;;4990213;28;20437;-63
2022/01/08 12:22:18;;;;;;;5.50;3.67;;;3.30;99.90;;;;;;4988687;28;20066;-63
2022/01/08 12:24:55;;;;;;;13.23;3.75;;;3.30;99.90;;;;;;4990197;28;20097;-63
2022/01/08 12:27:33;;;;;;;9.45;5.38;;;3.30;99.70;;;;;;4954504;28;20050;-63
2022/01/08 12:30:01;;;;;;;11.88;4.90;;;3.30;99.80;;;;;;4985067;28;20155;-64
2022/01/08 12:32:37;;;;;;;12.57;4.20;;;3.30;99.80;;;;;;4968665;28;20521;-63
2022/01/08 12:35:15;;;;;;;7.13;3.38;;;3.30;99.80;;;;;;4951898;28;20397;-63
2022/01/08 12:37:44;;;;;;;13.43;5.40;;;3.40;99.90;;;;;;4971665;28;20082;-63
2022/01/08 12:40:12;;;;;;;11.52;4.07;;;3.40;99.90;;;;;;4957793;28;20051;-63
2022/01/08 12:42:42;;;;;;;6.03;3.97;;;3.40;99.70;;;;;;4875742;28;20252;-63
2022/01/08 12:45:12;;;;;;;;;;;3.40;99.70;;;;;;4923026;29;20051;-63
2022/01/08 12:47:50;;;;;;;16.17;4.72;;;3.50;99.90;;;;;;4923641;29;20382;-63
2022/01/08 12:50:35;;;;;;;4.97;2.20;;;3.50;99.90;;;;;;4930218;29;20074;-63
2022/01/08 12:53:07;;;;;;;8.88;4.53;;;3.50;99.90;;;;;;4932128;29;20083;-63
2022/01/08 12:55:56;;;;;;;9.85;5.15;;;3.50;99.90;;;;;;4918054;29;20075;-63
2022/01/08 12:58:44;;;;;;;19.48;5.38;;;3.60;99.90;;;;;;4924923;29;20043;-63
2022/01/08 13:01:19;;;;;;;10.93;3.97;;;3.60;99.90;;;;;;4926866;29;20060;-63
2022/01/08 13:03:52;;;;;;;13.82;4.75;;;3.60;99.80;;;;;;4933503;29;20044;-63
2022/01/08 13:06:36;;;;;;;13.07;5.80;;;3.60;99.90;;;;;;4923598;29;20068;-63
2022/01/08 13:09:04;;;;;;;14.15;5.32;;;3.60;99.90;;;;;;4928354;29;20055;-63
2022/01/08 13:11:33;;;;;;;4.57;2.80;;;3.50;99.90;;;;;;4929443;29;20047;-63
2022/01/08 13:14:00;;;;;;;14.43;6.00;;;3.50;99.90;;;;;;4929261;29;20503;-63
2022/01/08 13:16:46;;;;;;;6.30;3.40;;;3.50;99.90;;;;;;4929526;29;20047;-63
2022/01/08 13:19:17;;;;;;;12.82;4.57;;;3.50;99.90;;;;;;4929960;29;20439;-63
2022/01/08 13:21:50;;;;;;;10.20;4.93;;;3.50;99.90;;;;;;4930344;29;20052;-63
2022/01/08 13:24:43;;;;;;;15.20;7.38;;;3.50;99.90;;;;;;4934102;29;20078;-63
2022/01/08 13:27:15;;;;;;;13.32;5.18;;;3.60;99.90;;;;;;4913400;29;20099;-63
2022/01/08 13:29:43;;;;;;;9.90;4.43;;;3.60;99.90;;;;;;4930239;29;20040;-63